LPPS/PXO METAR and TAF weather

Enter ICAO airport designator
Station Type Date Time Source
LPPS METAR 2020/01/27 17:00 UTC NOAA

LPPS 271700Z 19008KT 150V230 9999 SCT015 19/12 Q1024


Station Type Date Time Source
LPPS Decoded METAR 2020/01/27 17:00 UTC NOAA

Porto Santo, Portugal (LPPS) 33-04N 016-21W 82M
Jan 27, 2020 - 12:00 PM EST / 2020.01.27 1700 UTC
Wind: from the S (190 degrees) at 9 MPH (8 KT) (direction variable):0
Visibility: greater than 7 mile(s):0
Sky conditions: partly cloudy
Temperature: 66 F (19 C)
Dew Point: 53 F (12 C)
Relative Humidity: 63%
Pressure (altimeter): 30.24 in. Hg (1024 hPa)
ob: LPPS 271700Z 19008KT 150V230 9999 SCT015 19/12 Q1024
cycle: 17

Station Type Date Time Source
LPPS TAF 2020/01/27 12:18 UTC NOAA

TAF LPPS 271100Z 2712/2818 19007KT 9999 SCT015
BECMG 2716/2718 VRB05KT
BECMG 2803/2806 13010KT

Example: see airport list